createdAt,value
2017-10-20T00:00:24.498Z,0
2017-10-20T00:01:25.885Z,0
2017-10-20T00:02:27.281Z,0
2017-10-20T00:03:28.673Z,0
2017-10-20T00:04:30.064Z,0
2017-10-20T00:05:31.451Z,0
2017-10-20T00:06:32.838Z,0
2017-10-20T00:07:34.233Z,0
2017-10-20T00:08:35.622Z,0
2017-10-20T00:09:37.018Z,0
2017-10-20T00:10:38.408Z,0
2017-10-20T00:11:39.799Z,0
2017-10-20T00:12:41.192Z,0
2017-10-20T00:13:42.579Z,0
2017-10-20T00:14:43.969Z,0
2017-10-20T00:15:45.380Z,0
2017-10-20T00:16:46.752Z,0
2017-10-20T00:17:48.149Z,0
2017-10-20T00:18:49.539Z,0
2017-10-20T00:19:50.928Z,0
2017-10-20T00:20:52.318Z,0
2017-10-20T00:21:53.713Z,0
2017-10-20T00:22:55.057Z,0
2017-10-20T00:23:56.448Z,0
2017-10-20T00:24:57.841Z,0
2017-10-20T00:25:59.229Z,0
2017-10-20T00:27:00.618Z,0
2017-10-20T00:28:02.007Z,0
2017-10-20T00:29:03.395Z,0
2017-10-20T00:30:04.788Z,0
2017-10-20T00:31:06.907Z,0
2017-10-20T00:32:08.302Z,0
2017-10-20T00:33:09.689Z,0
2017-10-20T00:34:11.073Z,0
2017-10-20T00:35:12.463Z,0
2017-10-20T00:36:13.854Z,0
2017-10-20T00:37:15.244Z,0
2017-10-20T00:38:16.635Z,0
2017-10-20T00:39:18.031Z,0
2017-10-20T00:40:19.423Z,0
2017-10-20T00:41:20.810Z,0
2017-10-20T00:42:22.202Z,0
2017-10-20T00:43:23.597Z,0
2017-10-20T00:44:24.986Z,0
2017-10-20T00:45:26.377Z,0
2017-10-20T00:46:27.770Z,0
2017-10-20T00:47:29.168Z,0
2017-10-20T00:48:30.595Z,0
2017-10-20T00:49:31.986Z,0
2017-10-20T00:50:33.372Z,0
2017-10-20T00:51:34.763Z,0
2017-10-20T00:52:36.156Z,0
2017-10-20T00:53:37.550Z,0
2017-10-20T00:54:38.942Z,0
2017-10-20T00:55:40.326Z,0
2017-10-20T00:56:41.718Z,0
2017-10-20T00:57:43.106Z,0
2017-10-20T00:58:44.495Z,0
2017-10-20T00:59:45.885Z,0
2017-10-20T01:00:47.278Z,0
2017-10-20T01:01:48.667Z,0
2017-10-20T01:02:50.055Z,0
2017-10-20T01:03:51.445Z,0
2017-10-20T01:04:52.831Z,0
2017-10-20T01:05:54.224Z,0
2017-10-20T01:06:55.616Z,0
2017-10-20T01:07:57.007Z,0
2017-10-20T01:08:58.401Z,0
2017-10-20T01:09:59.790Z,0
2017-10-20T01:11:01.179Z,0
2017-10-20T01:12:02.569Z,0
2017-10-20T01:13:03.958Z,0
2017-10-20T01:14:05.353Z,0
2017-10-20T01:15:06.747Z,0
2017-10-20T01:16:08.140Z,0
2017-10-20T01:17:09.533Z,0
2017-10-20T01:18:10.924Z,0
2017-10-20T01:19:12.317Z,0
2017-10-20T01:20:13.708Z,0
2017-10-20T01:21:15.098Z,0
2017-10-20T01:22:16.493Z,0
2017-10-20T01:23:17.888Z,0
2017-10-20T01:24:19.281Z,0
2017-10-20T01:25:20.670Z,0
2017-10-20T01:26:22.061Z,0
2017-10-20T01:27:23.448Z,0
2017-10-20T01:28:24.840Z,0
2017-10-20T01:29:26.230Z,0
2017-10-20T01:30:27.626Z,0
2017-10-20T01:31:29.015Z,0
2017-10-20T01:32:30.407Z,0
2017-10-20T01:33:31.796Z,0
2017-10-20T01:34:33.186Z,0
2017-10-20T01:35:34.578Z,0
2017-10-20T01:36:35.970Z,0
2017-10-20T01:37:37.364Z,0
2017-10-20T01:38:38.753Z,0
2017-10-20T01:39:40.144Z,0
2017-10-20T01:40:41.536Z,0
2017-10-20T01:41:42.929Z,0
2017-10-20T01:42:44.325Z,0
2017-10-20T01:43:45.738Z,0
2017-10-20T01:44:47.110Z,0
2017-10-20T01:45:48.500Z,0
2017-10-20T01:46:49.889Z,0
2017-10-20T01:47:51.282Z,0
2017-10-20T01:48:52.672Z,0
2017-10-20T01:49:54.062Z,0
2017-10-20T01:50:55.453Z,0
2017-10-20T01:51:56.844Z,0
2017-10-20T01:52:58.235Z,0
2017-10-20T01:53:59.625Z,0
2017-10-20T01:55:01.017Z,0
2017-10-20T01:56:02.406Z,0
2017-10-20T01:57:03.801Z,0
2017-10-20T01:58:05.191Z,0
2017-10-20T01:59:06.588Z,0
2017-10-20T02:00:07.978Z,0
2017-10-20T02:01:09.366Z,0
2017-10-20T02:02:10.755Z,0
2017-10-20T02:03:12.146Z,0
2017-10-20T02:04:13.540Z,0
2017-10-20T02:05:14.928Z,0
2017-10-20T02:06:16.320Z,0
2017-10-20T02:07:17.708Z,0
2017-10-20T02:08:19.097Z,0
2017-10-20T02:09:20.482Z,0
2017-10-20T02:10:21.872Z,0
2017-10-20T02:11:23.260Z,0
2017-10-20T02:12:24.659Z,0
2017-10-20T02:13:26.048Z,0
2017-10-20T02:14:27.436Z,0
2017-10-20T02:15:28.824Z,0
2017-10-20T02:16:30.212Z,0
2017-10-20T02:17:31.607Z,0
2017-10-20T02:18:32.996Z,0
2017-10-20T02:19:34.388Z,0
2017-10-20T02:20:35.781Z,0
2017-10-20T02:21:37.164Z,0
2017-10-20T02:22:38.560Z,0
2017-10-20T02:23:39.952Z,0
2017-10-20T02:24:41.341Z,0
2017-10-20T02:25:42.765Z,0
2017-10-20T02:26:44.126Z,0
2017-10-20T02:27:45.518Z,0
2017-10-20T02:28:46.906Z,0
2017-10-20T02:29:48.295Z,0
2017-10-20T02:30:49.688Z,0
2017-10-20T02:31:51.684Z,0
2017-10-20T02:32:53.074Z,0
2017-10-20T02:33:54.465Z,0
2017-10-20T02:34:55.859Z,0
2017-10-20T02:35:57.249Z,0
2017-10-20T02:36:58.639Z,0
2017-10-20T02:38:00.029Z,0
2017-10-20T02:39:01.423Z,0
2017-10-20T02:40:02.816Z,0
2017-10-20T02:41:04.211Z,0
2017-10-20T02:42:05.597Z,0
2017-10-20T02:43:06.983Z,0
2017-10-20T02:44:08.382Z,0
2017-10-20T02:45:09.768Z,0
2017-10-20T02:46:11.157Z,0
2017-10-20T02:47:12.548Z,0
2017-10-20T02:48:13.939Z,0
2017-10-20T02:49:15.332Z,0
2017-10-20T02:50:16.722Z,0
2017-10-20T02:51:18.112Z,0
2017-10-20T02:52:19.507Z,0
2017-10-20T02:53:20.891Z,0
2017-10-20T02:54:22.278Z,0
2017-10-20T02:55:23.671Z,0
2017-10-20T02:56:25.060Z,0
2017-10-20T02:57:26.450Z,0
2017-10-20T02:58:27.840Z,0
2017-10-20T02:59:29.233Z,0
2017-10-20T03:00:30.647Z,0
2017-10-20T03:01:32.013Z,0
2017-10-20T03:02:33.401Z,0
2017-10-20T03:03:34.795Z,0
2017-10-20T03:04:36.186Z,0
2017-10-20T03:05:37.578Z,0
2017-10-20T03:06:38.967Z,0
2017-10-20T03:07:40.361Z,0
2017-10-20T03:08:41.752Z,0
2017-10-20T03:09:43.151Z,0
2017-10-20T03:10:44.541Z,0
2017-10-20T03:11:45.930Z,0
2017-10-20T03:12:47.322Z,0
2017-10-20T03:13:48.724Z,0
2017-10-20T03:14:50.109Z,0
2017-10-20T03:15:51.502Z,0
2017-10-20T03:16:52.897Z,0
2017-10-20T03:17:54.291Z,0
2017-10-20T03:18:55.678Z,0
2017-10-20T03:19:57.066Z,0
2017-10-20T03:20:58.453Z,0
2017-10-20T03:21:59.843Z,0
2017-10-20T03:23:01.846Z,0
2017-10-20T03:24:03.239Z,0
2017-10-20T03:25:04.636Z,0
2017-10-20T03:26:06.027Z,0
2017-10-20T03:27:07.415Z,0
2017-10-20T03:28:08.802Z,0
2017-10-20T03:29:10.199Z,0
2017-10-20T03:30:11.585Z,0
2017-10-20T03:31:12.988Z,0
2017-10-20T03:32:14.373Z,0
2017-10-20T03:33:15.760Z,0
2017-10-20T03:34:17.150Z,0
2017-10-20T03:35:18.537Z,0
2017-10-20T03:36:19.929Z,0
2017-10-20T03:37:21.323Z,0
2017-10-20T03:38:22.713Z,0
2017-10-20T03:39:24.106Z,0
2017-10-20T03:40:25.498Z,0
2017-10-20T03:41:26.888Z,0
2017-10-20T03:42:28.278Z,0
2017-10-20T03:43:29.670Z,0
2017-10-20T03:44:31.058Z,0
2017-10-20T03:45:32.451Z,0
2017-10-20T03:46:33.847Z,0
2017-10-20T03:47:35.238Z,0
2017-10-20T03:48:36.631Z,0
2017-10-20T03:49:38.021Z,0
2017-10-20T03:50:40.180Z,0
2017-10-20T03:51:41.575Z,0
2017-10-20T03:52:42.966Z,0
2017-10-20T03:53:44.362Z,0
2017-10-20T03:54:45.753Z,0
2017-10-20T03:55:47.143Z,0
2017-10-20T03:56:48.537Z,0
2017-10-20T03:57:49.926Z,0
2017-10-20T03:58:51.317Z,0
2017-10-20T03:59:52.712Z,0
2017-10-20T04:00:54.104Z,0
2017-10-20T04:01:55.493Z,0
2017-10-20T04:02:56.883Z,0
2017-10-20T04:03:58.274Z,0
2017-10-20T04:04:59.670Z,0
2017-10-20T04:06:01.060Z,0
2017-10-20T04:07:02.451Z,0
2017-10-20T04:08:03.842Z,0
2017-10-20T04:09:05.228Z,0
2017-10-20T04:10:06.846Z,0
2017-10-20T04:11:08.111Z,0
2017-10-20T04:12:09.501Z,0
2017-10-20T04:13:10.945Z,0
2017-10-20T04:14:12.338Z,0
2017-10-20T04:15:13.730Z,0
2017-10-20T04:16:15.123Z,0
2017-10-20T04:17:16.513Z,0
2017-10-20T04:18:17.906Z,0
2017-10-20T04:19:19.296Z,0
2017-10-20T04:20:20.692Z,0
2017-10-20T04:21:22.081Z,0
2017-10-20T04:22:23.471Z,0
2017-10-20T04:23:24.859Z,0
2017-10-20T04:24:26.246Z,0
2017-10-20T04:25:27.636Z,0
2017-10-20T04:26:29.029Z,0
2017-10-20T04:27:30.500Z,0
2017-10-20T04:28:31.892Z,0
2017-10-20T04:29:43.851Z,0
2017-10-20T04:30:45.240Z,0
2017-10-20T04:31:47.370Z,0
2017-10-20T04:32:49.442Z,0
2017-10-20T04:33:50.824Z,0
2017-10-20T04:34:52.212Z,0
2017-10-20T04:35:53.606Z,0
2017-10-20T04:36:54.997Z,0
2017-10-20T04:37:56.382Z,0
2017-10-20T04:38:57.772Z,0
2017-10-20T04:40:00.666Z,0
2017-10-20T04:41:02.057Z,0
2017-10-20T04:42:03.452Z,0
2017-10-20T04:43:04.851Z,0
2017-10-20T04:44:06.243Z,0
2017-10-20T04:45:07.596Z,0
2017-10-20T04:46:08.985Z,0
2017-10-20T04:47:10.380Z,0
2017-10-20T04:48:11.776Z,0
2017-10-20T04:49:13.168Z,0
2017-10-20T04:50:14.563Z,0
2017-10-20T04:51:15.958Z,0
2017-10-20T04:52:17.346Z,0
2017-10-20T04:53:18.731Z,0
2017-10-20T04:54:20.120Z,0
2017-10-20T04:55:21.509Z,0
2017-10-20T04:56:22.914Z,0
2017-10-20T04:57:24.305Z,0
2017-10-20T04:58:25.699Z,0
2017-10-20T04:59:27.089Z,0
2017-10-20T05:00:28.479Z,0
2017-10-20T05:01:29.866Z,0
2017-10-20T05:02:31.258Z,0
2017-10-20T05:03:32.646Z,0
2017-10-20T05:04:34.036Z,0
2017-10-20T05:05:35.429Z,0
2017-10-20T05:06:36.819Z,0
2017-10-20T05:07:38.207Z,0
2017-10-20T05:08:39.598Z,0
2017-10-20T05:09:40.987Z,0
2017-10-20T05:10:42.376Z,0
2017-10-20T05:11:43.819Z,0
2017-10-20T05:12:45.208Z,0
2017-10-20T05:13:46.597Z,0
2017-10-20T05:14:47.987Z,0
2017-10-20T05:15:49.375Z,0
2017-10-20T05:16:50.766Z,0
2017-10-20T05:17:52.159Z,0
2017-10-20T05:18:53.553Z,0
2017-10-20T05:19:54.940Z,0
2017-10-20T05:20:56.522Z,0
2017-10-20T05:21:57.913Z,0
2017-10-20T05:22:59.303Z,0
2017-10-20T05:24:00.702Z,0
2017-10-20T05:25:02.086Z,0
2017-10-20T05:26:03.777Z,0
2017-10-20T05:27:05.632Z,0
2017-10-20T05:28:07.514Z,0
2017-10-20T05:29:09.509Z,0
2017-10-20T05:30:11.193Z,0
2017-10-20T05:31:12.884Z,0
2017-10-20T05:32:14.756Z,4
2017-10-20T05:33:16.503Z,0
2017-10-20T05:34:18.134Z,4
2017-10-20T05:35:19.871Z,4
2017-10-20T05:36:21.735Z,4
2017-10-20T05:37:23.590Z,4
2017-10-20T05:38:26.016Z,4
2017-10-20T05:39:27.670Z,4
2017-10-20T05:40:29.511Z,4
2017-10-20T05:41:31.405Z,0
2017-10-20T05:42:32.997Z,4
2017-10-20T05:43:34.882Z,4
2017-10-20T05:44:36.341Z,0
2017-10-20T05:45:38.296Z,4
2017-10-20T05:46:39.860Z,4
2017-10-20T05:47:42.378Z,4
2017-10-20T05:48:44.063Z,4
2017-10-20T05:49:46.247Z,8
2017-10-20T05:50:47.914Z,8
2017-10-20T05:51:49.700Z,8
2017-10-20T05:52:51.648Z,12
2017-10-20T05:53:53.617Z,12
2017-10-20T05:54:55.277Z,16
2017-10-20T05:55:57.063Z,16
2017-10-20T05:56:58.988Z,20
2017-10-20T05:58:00.746Z,24
2017-10-20T05:59:02.474Z,28
2017-10-20T06:00:04.666Z,28
2017-10-20T06:01:06.393Z,36
2017-10-20T06:02:08.127Z,40
2017-10-20T06:03:09.880Z,40
2017-10-20T06:04:12.356Z,44
2017-10-20T06:05:14.320Z,48
2017-10-20T06:06:15.958Z,56
2017-10-20T06:07:17.999Z,56
2017-10-20T06:08:20.482Z,60
2017-10-20T06:09:22.469Z,68
2017-10-20T06:10:23.986Z,72
2017-10-20T06:11:25.544Z,76
2017-10-20T06:12:27.049Z,76
2017-10-20T06:13:28.546Z,80
2017-10-20T06:14:30.186Z,84
2017-10-20T06:15:31.674Z,88
2017-10-20T06:16:33.119Z,92
2017-10-20T06:17:34.542Z,96
2017-10-20T06:18:35.935Z,104
2017-10-20T06:19:37.323Z,112
2017-10-20T06:20:38.717Z,128
2017-10-20T06:21:40.107Z,136
2017-10-20T06:22:41.502Z,152
2017-10-20T06:23:42.892Z,168
2017-10-20T06:24:44.284Z,180
2017-10-20T06:25:45.679Z,192
2017-10-20T06:26:47.067Z,200
2017-10-20T06:27:48.460Z,216
2017-10-20T06:28:49.854Z,224
2017-10-20T06:29:51.248Z,232
2017-10-20T06:30:52.643Z,236
2017-10-20T06:31:54.038Z,256
2017-10-20T06:32:55.431Z,288
2017-10-20T06:33:56.826Z,320
2017-10-20T06:34:58.220Z,324
2017-10-20T06:35:59.617Z,320
2017-10-20T06:37:01.003Z,324
2017-10-20T06:38:02.400Z,336
2017-10-20T06:39:03.795Z,360
2017-10-20T06:40:05.186Z,400
2017-10-20T06:41:06.580Z,448
2017-10-20T06:42:07.971Z,476
2017-10-20T06:43:09.368Z,504
2017-10-20T06:44:10.763Z,548
2017-10-20T06:45:12.165Z,612
2017-10-20T06:46:13.549Z,676
2017-10-20T06:47:14.961Z,664
2017-10-20T06:48:16.330Z,636
2017-10-20T06:49:17.725Z,704
2017-10-20T06:50:19.116Z,716
2017-10-20T06:51:20.507Z,668
2017-10-20T06:52:21.907Z,692
2017-10-20T06:53:23.300Z,608
2017-10-20T06:54:24.693Z,548
2017-10-20T06:55:26.085Z,532
2017-10-20T06:56:27.474Z,496
2017-10-20T06:57:28.866Z,472
2017-10-20T06:58:30.263Z,484
2017-10-20T06:59:31.660Z,536
2017-10-20T07:00:33.054Z,524
2017-10-20T07:01:34.448Z,492
2017-10-20T07:02:35.838Z,500
2017-10-20T07:03:37.229Z,460
2017-10-20T07:04:38.624Z,464
2017-10-20T07:05:40.019Z,484
2017-10-20T07:06:41.413Z,468
2017-10-20T07:07:42.811Z,352
2017-10-20T07:08:44.202Z,288
2017-10-20T07:09:45.595Z,252
2017-10-20T07:10:46.987Z,244
2017-10-20T07:11:48.378Z,248
2017-10-20T07:12:49.772Z,288
2017-10-20T07:13:51.169Z,316
2017-10-20T07:14:52.563Z,268
2017-10-20T07:15:53.950Z,284
2017-10-20T07:16:55.345Z,240
2017-10-20T07:17:56.733Z,256
2017-10-20T07:18:58.148Z,216
2017-10-20T07:19:59.521Z,264
2017-10-20T07:21:00.918Z,392
2017-10-20T07:22:02.316Z,460
2017-10-20T07:23:03.703Z,372
2017-10-20T07:24:05.096Z,444
2017-10-20T07:25:06.490Z,512
2017-10-20T07:26:07.881Z,620
2017-10-20T07:27:09.272Z,540
2017-10-20T07:28:10.669Z,528
2017-10-20T07:29:12.063Z,504
2017-10-20T07:30:13.453Z,532
2017-10-20T07:31:14.844Z,584
2017-10-20T07:32:16.234Z,524
2017-10-20T07:33:17.630Z,472
2017-10-20T07:34:19.023Z,388
2017-10-20T07:35:20.419Z,428
2017-10-20T07:36:21.813Z,472
2017-10-20T07:37:23.211Z,436
2017-10-20T07:38:24.598Z,516
2017-10-20T07:39:25.989Z,692
2017-10-20T07:40:27.391Z,888
2017-10-20T07:41:28.788Z,1000
2017-10-20T07:42:30.184Z,844
2017-10-20T07:43:31.582Z,740
2017-10-20T07:44:32.969Z,516
2017-10-20T07:45:34.362Z,428
2017-10-20T07:46:35.759Z,600
2017-10-20T07:47:37.149Z,520
2017-10-20T07:48:38.543Z,316
2017-10-20T07:49:39.938Z,244
2017-10-20T07:50:41.333Z,232
2017-10-20T07:51:42.724Z,180
2017-10-20T07:52:44.117Z,172
2017-10-20T07:53:45.513Z,228
2017-10-20T07:54:46.911Z,288
2017-10-20T07:55:48.302Z,280
2017-10-20T07:56:49.694Z,252
2017-10-20T07:57:51.097Z,284
2017-10-20T07:58:52.483Z,400
2017-10-20T07:59:53.873Z,528
2017-10-20T08:00:55.265Z,612
2017-10-20T08:01:56.663Z,508
2017-10-20T08:02:58.055Z,528
2017-10-20T08:03:59.451Z,500
2017-10-20T08:05:00.844Z,476
2017-10-20T08:06:02.243Z,684
2017-10-20T08:07:03.635Z,852
2017-10-20T08:08:05.030Z,756
2017-10-20T08:09:06.421Z,700
2017-10-20T08:10:07.816Z,628
2017-10-20T08:11:09.210Z,552
2017-10-20T08:12:10.604Z,560
2017-10-20T08:13:11.994Z,580
2017-10-20T08:14:13.386Z,636
2017-10-20T08:15:14.777Z,756
2017-10-20T08:16:16.171Z,708
2017-10-20T08:17:17.564Z,668
2017-10-20T08:18:18.957Z,588
2017-10-20T08:19:20.351Z,528
2017-10-20T08:20:21.744Z,628
2017-10-20T08:21:23.132Z,744
2017-10-20T08:22:24.523Z,780
2017-10-20T08:23:25.920Z,788
2017-10-20T08:24:27.311Z,840
2017-10-20T08:25:28.701Z,980
2017-10-20T08:26:30.099Z,1024
2017-10-20T08:27:31.488Z,1072
2017-10-20T08:28:32.883Z,1056
2017-10-20T08:29:34.274Z,1084
2017-10-20T08:30:35.670Z,1036
2017-10-20T08:31:37.064Z,1072
2017-10-20T08:32:38.459Z,1072
2017-10-20T08:33:39.851Z,1028
2017-10-20T08:34:41.242Z,1128
2017-10-20T08:35:42.632Z,1184
2017-10-20T08:36:44.023Z,1216
2017-10-20T08:37:45.416Z,1340
2017-10-20T08:38:46.808Z,1348
2017-10-20T08:39:48.202Z,1516
2017-10-20T08:40:49.597Z,2080
2017-10-20T08:41:50.987Z,2072
2017-10-20T08:42:52.380Z,1900
2017-10-20T08:43:53.778Z,1968
2017-10-20T08:44:55.172Z,2652
2017-10-20T08:45:56.568Z,3592
2017-10-20T08:46:57.963Z,3296
2017-10-20T08:47:59.358Z,2584
2017-10-20T08:49:00.750Z,2580
2017-10-20T08:50:02.148Z,2468
2017-10-20T08:51:03.539Z,1928
2017-10-20T08:52:04.935Z,2044
2017-10-20T08:53:06.329Z,2380
2017-10-20T08:54:07.729Z,2896
2017-10-20T08:55:09.121Z,2872
2017-10-20T08:56:10.512Z,2488
2017-10-20T08:57:11.907Z,2524
2017-10-20T08:58:13.309Z,2764
2017-10-20T08:59:14.706Z,3176
2017-10-20T09:00:16.098Z,3240
2017-10-20T09:01:17.493Z,3280
2017-10-20T09:02:18.888Z,3600
2017-10-20T09:03:20.281Z,4608
2017-10-20T09:04:21.671Z,3156
2017-10-20T09:05:23.063Z,5356
2017-10-20T09:06:24.460Z,2552
2017-10-20T09:07:25.852Z,5880
2017-10-20T09:08:27.246Z,5752
2017-10-20T09:09:28.643Z,7584
2017-10-20T09:10:30.036Z,5184
2017-10-20T09:11:31.432Z,7656
2017-10-20T09:12:32.826Z,5564
2017-10-20T09:13:34.222Z,5816
2017-10-20T09:14:35.613Z,2104
2017-10-20T09:15:37.007Z,1652
2017-10-20T09:16:38.401Z,2188
2017-10-20T09:17:39.800Z,5744
2017-10-20T09:18:41.195Z,5920
2017-10-20T09:19:42.588Z,6092
2017-10-20T09:20:43.984Z,6192
2017-10-20T09:21:45.380Z,6696
2017-10-20T09:22:46.775Z,14188
2017-10-20T09:23:48.179Z,24832
2017-10-20T09:24:49.613Z,26976
2017-10-20T09:25:51.006Z,26688
2017-10-20T09:26:52.406Z,27136
2017-10-20T09:27:53.803Z,28800
2017-10-20T09:28:55.199Z,27808
2017-10-20T09:29:56.597Z,27424
2017-10-20T09:30:57.995Z,27008
2017-10-20T09:31:59.393Z,27392
2017-10-20T09:33:00.790Z,30592
2017-10-20T09:34:02.190Z,34528
2017-10-20T09:35:03.586Z,35104
2017-10-20T09:36:04.987Z,33408
2017-10-20T09:37:06.388Z,37984
2017-10-20T09:38:07.789Z,41248
2017-10-20T09:39:09.182Z,41728
2017-10-20T09:40:10.584Z,45664
2017-10-20T09:41:11.980Z,49248
2017-10-20T09:42:13.379Z,33024
2017-10-20T09:43:14.780Z,35648
2017-10-20T09:44:16.184Z,62400
2017-10-20T09:45:17.582Z,53984
2017-10-20T09:46:18.981Z,60896
2017-10-20T09:47:20.378Z,62272
2017-10-20T09:48:21.778Z,17568
2017-10-20T09:49:23.179Z,48288
2017-10-20T09:50:24.577Z,12572
2017-10-20T09:51:25.981Z,36384
2017-10-20T09:52:27.380Z,8088
2017-10-20T09:53:28.774Z,52320
2017-10-20T09:54:30.171Z,18496
2017-10-20T09:55:31.574Z,59584
2017-10-20T09:56:32.972Z,56480
2017-10-20T09:57:34.373Z,57216
2017-10-20T09:58:35.774Z,58816
2017-10-20T09:59:37.179Z,37824
2017-10-20T10:00:38.578Z,55104
2017-10-20T10:01:39.977Z,56224
2017-10-20T10:02:41.375Z,4304
2017-10-20T10:03:42.776Z,7108
2017-10-20T10:04:44.191Z,57344
2017-10-20T10:05:45.581Z,58592
2017-10-20T10:06:46.980Z,61120
2017-10-20T10:07:48.378Z,62048
2017-10-20T10:08:49.777Z,57920
2017-10-20T10:09:51.177Z,54592
2017-10-20T10:10:52.577Z,57088
2017-10-20T10:11:53.979Z,60864
2017-10-20T10:12:55.393Z,59680
2017-10-20T10:13:56.794Z,61472
2017-10-20T10:14:58.299Z,65984
2017-10-20T10:15:59.722Z,64128
2017-10-20T10:17:01.125Z,63872
2017-10-20T10:18:02.528Z,67648
2017-10-20T10:19:03.925Z,6244
2017-10-20T10:20:05.334Z,63072
2017-10-20T10:21:06.732Z,62048
2017-10-20T10:22:08.131Z,64512
2017-10-20T10:23:09.533Z,67616
2017-10-20T10:24:10.934Z,4264
2017-10-20T10:25:12.334Z,71328
2017-10-20T10:26:13.735Z,69376
2017-10-20T10:27:15.139Z,3840
2017-10-20T10:28:16.542Z,68928
2017-10-20T10:29:17.942Z,26720
2017-10-20T10:30:19.346Z,67072
2017-10-20T10:31:20.748Z,2772
2017-10-20T10:32:22.174Z,3552
2017-10-20T10:33:23.621Z,66528
2017-10-20T10:34:25.052Z,69600
2017-10-20T10:35:26.438Z,34144
2017-10-20T10:36:27.861Z,69440
2017-10-20T10:37:29.254Z,69024
2017-10-20T10:38:30.654Z,71776
2017-10-20T10:39:32.075Z,32064
2017-10-20T10:40:33.476Z,13324
2017-10-20T10:41:34.879Z,67616
2017-10-20T10:42:36.281Z,70144
2017-10-20T10:43:37.685Z,70720
2017-10-20T10:44:39.085Z,66944
2017-10-20T10:45:40.487Z,63808
2017-10-20T10:46:41.890Z,47872
2017-10-20T10:47:43.292Z,22560
2017-10-20T10:48:44.694Z,4068
2017-10-20T10:49:46.097Z,6848
2017-10-20T10:50:47.494Z,2456
2017-10-20T10:51:48.893Z,13008
2017-10-20T10:52:50.300Z,14276
2017-10-20T10:53:51.701Z,4112
2017-10-20T10:54:53.100Z,4216
2017-10-20T10:55:54.501Z,3000
2017-10-20T10:56:55.898Z,2088
2017-10-20T10:57:57.297Z,2100
2017-10-20T10:58:58.691Z,2464
2017-10-20T11:00:00.092Z,2256
2017-10-20T11:01:01.491Z,4204
2017-10-20T11:02:02.895Z,2244
2017-10-20T11:03:04.301Z,1508
2017-10-20T11:04:05.696Z,70304
2017-10-20T11:05:07.093Z,3448
2017-10-20T11:06:08.492Z,26752
2017-10-20T11:07:09.888Z,79232
2017-10-20T11:08:11.287Z,73888
2017-10-20T11:09:12.689Z,65952
2017-10-20T11:10:14.090Z,60864
2017-10-20T11:11:15.490Z,51104
2017-10-20T11:12:16.885Z,19008
2017-10-20T11:13:18.282Z,6720
2017-10-20T11:14:19.680Z,13124
2017-10-20T11:15:21.080Z,11772
2017-10-20T11:16:22.481Z,11124
2017-10-20T11:17:23.881Z,11332
2017-10-20T11:18:25.286Z,11556
2017-10-20T11:19:26.680Z,5996
2017-10-20T11:20:28.077Z,11816
2017-10-20T11:21:29.477Z,11852
2017-10-20T11:22:30.875Z,10752
2017-10-20T11:23:32.270Z,11228
2017-10-20T11:24:33.669Z,11164
2017-10-20T11:25:35.071Z,11320
2017-10-20T11:26:36.472Z,11340
2017-10-20T11:27:37.865Z,9052
2017-10-20T11:28:39.266Z,4392
2017-10-20T11:29:40.658Z,4916
2017-10-20T11:30:42.055Z,3936
2017-10-20T11:31:43.452Z,5392
2017-10-20T11:32:44.854Z,3940
2017-10-20T11:33:46.248Z,11960
2017-10-20T11:34:47.644Z,3556
2017-10-20T11:35:49.041Z,2996
2017-10-20T11:36:50.437Z,3380
2017-10-20T11:37:51.837Z,3532
2017-10-20T11:38:53.231Z,3268
2017-10-20T11:39:54.630Z,3576
2017-10-20T11:40:56.023Z,3628
2017-10-20T11:41:57.417Z,3960
2017-10-20T11:42:58.813Z,9268
2017-10-20T11:44:00.211Z,11276
2017-10-20T11:45:01.606Z,10436
2017-10-20T11:46:03.006Z,10684
2017-10-20T11:47:04.401Z,10720
2017-10-20T11:48:05.795Z,10904
2017-10-20T11:49:07.190Z,10524
2017-10-20T11:50:08.591Z,10208
2017-10-20T11:51:09.984Z,9524
2017-10-20T11:52:11.379Z,9860
2017-10-20T11:53:12.775Z,9600
2017-10-20T11:54:14.172Z,1960
2017-10-20T11:55:15.566Z,9648
2017-10-20T11:56:16.964Z,8548
2017-10-20T11:57:18.361Z,9632
2017-10-20T11:58:19.755Z,9576
2017-10-20T11:59:21.153Z,9460
2017-10-20T12:00:22.551Z,9788
2017-10-20T12:01:23.949Z,9252
2017-10-20T12:02:25.345Z,9516
2017-10-20T12:03:26.741Z,9676
2017-10-20T12:04:28.142Z,10484
2017-10-20T12:05:29.536Z,9376
2017-10-20T12:06:30.936Z,9592
2017-10-20T12:07:32.336Z,9600
2017-10-20T12:08:33.730Z,9152
2017-10-20T12:09:35.128Z,9204
2017-10-20T12:10:36.523Z,9464
2017-10-20T12:11:37.920Z,9660
2017-10-20T12:12:39.315Z,10196
2017-10-20T12:13:40.713Z,5104
2017-10-20T12:14:42.116Z,10548
2017-10-20T12:15:43.520Z,10456
2017-10-20T12:16:44.912Z,7008
2017-10-20T12:17:46.310Z,10404
2017-10-20T12:18:47.707Z,11276
2017-10-20T12:19:49.103Z,10944
2017-10-20T12:20:50.498Z,5272
2017-10-20T12:21:51.897Z,6232
2017-10-20T12:22:53.294Z,10324
2017-10-20T12:23:54.688Z,11660
2017-10-20T12:24:56.084Z,9088
2017-10-20T12:25:57.479Z,5856
2017-10-20T12:26:58.876Z,6372
2017-10-20T12:28:00.278Z,6860
2017-10-20T12:29:01.673Z,7128
2017-10-20T12:30:03.068Z,11208
2017-10-20T12:31:04.467Z,8816
2017-10-20T12:32:05.863Z,10708
2017-10-20T12:33:07.260Z,4268
2017-10-20T12:34:08.654Z,3560
2017-10-20T12:35:10.049Z,9720
2017-10-20T12:36:11.454Z,10152
2017-10-20T12:37:12.868Z,10728
2017-10-20T12:38:14.265Z,10164
2017-10-20T12:39:15.661Z,9872
2017-10-20T12:40:17.057Z,9880
2017-10-20T12:41:18.453Z,10224
2017-10-20T12:42:19.851Z,6440
2017-10-20T12:43:21.249Z,5940
2017-10-20T12:44:22.646Z,5012
2017-10-20T12:45:24.046Z,5124
2017-10-20T12:46:25.437Z,9452
2017-10-20T12:47:26.832Z,5304
2017-10-20T12:48:28.229Z,5720
2017-10-20T12:49:29.625Z,5696
2017-10-20T12:50:31.024Z,5708
2017-10-20T12:51:32.420Z,5796
2017-10-20T12:52:33.810Z,5544
2017-10-20T12:53:35.212Z,5536
2017-10-20T12:54:36.602Z,5544
2017-10-20T12:55:37.998Z,5488
2017-10-20T12:56:39.393Z,5692
2017-10-20T12:57:40.790Z,5136
2017-10-20T12:58:42.189Z,4816
2017-10-20T12:59:43.582Z,4544
2017-10-20T13:00:44.979Z,4384
2017-10-20T13:01:46.376Z,4268
2017-10-20T13:02:47.770Z,4300
2017-10-20T13:03:49.167Z,4160
2017-10-20T13:04:50.564Z,4396
2017-10-20T13:05:51.965Z,3944
2017-10-20T13:06:53.358Z,3756
2017-10-20T13:07:54.752Z,3692
2017-10-20T13:08:56.150Z,3816
2017-10-20T13:09:57.542Z,3972
2017-10-20T13:10:58.938Z,3960
2017-10-20T13:12:00.336Z,4000
2017-10-20T13:13:01.734Z,3956
2017-10-20T13:14:03.132Z,3916
2017-10-20T13:15:04.534Z,3860
2017-10-20T13:16:05.920Z,3712
2017-10-20T13:17:07.315Z,3656
2017-10-20T13:18:08.712Z,3656
2017-10-20T13:19:10.113Z,3920
2017-10-20T13:20:11.509Z,4192
2017-10-20T13:21:12.903Z,5100
2017-10-20T13:22:14.299Z,3584
2017-10-20T13:23:15.693Z,2824
2017-10-20T13:24:17.086Z,2716
2017-10-20T13:25:18.480Z,2852
2017-10-20T13:26:19.876Z,2996
2017-10-20T13:27:21.270Z,3064
2017-10-20T13:28:22.662Z,2500
2017-10-20T13:29:24.062Z,2080
2017-10-20T13:30:25.454Z,1768
2017-10-20T13:31:26.848Z,1788
2017-10-20T13:32:28.244Z,1796
2017-10-20T13:33:29.649Z,1464
2017-10-20T13:34:31.044Z,1256
2017-10-20T13:35:32.439Z,1160
2017-10-20T13:36:33.866Z,1184
2017-10-20T13:37:35.285Z,1200
2017-10-20T13:38:36.679Z,1460
2017-10-20T13:39:38.074Z,1416
2017-10-20T13:40:39.471Z,1216
2017-10-20T13:41:40.866Z,1200
2017-10-20T13:42:42.257Z,1360
2017-10-20T13:43:43.653Z,1380
2017-10-20T13:44:45.047Z,1380
2017-10-20T13:45:46.449Z,1472
2017-10-20T13:46:47.836Z,1416
2017-10-20T13:47:49.230Z,1384
2017-10-20T13:48:50.624Z,1652
2017-10-20T13:49:52.033Z,2320
2017-10-20T13:50:53.410Z,2656
2017-10-20T13:51:54.802Z,2796
2017-10-20T13:52:56.199Z,2792
2017-10-20T13:53:57.606Z,2348
2017-10-20T13:54:59.069Z,2188
2017-10-20T13:56:00.465Z,2052
2017-10-20T13:57:01.859Z,1928
2017-10-20T13:58:03.253Z,1644
2017-10-20T13:59:04.644Z,1396
2017-10-20T14:00:06.041Z,1260
2017-10-20T14:01:07.434Z,1092
2017-10-20T14:02:08.826Z,976
2017-10-20T14:03:10.227Z,844
2017-10-20T14:04:11.616Z,800
2017-10-20T14:05:13.008Z,788
2017-10-20T14:06:14.401Z,744
2017-10-20T14:07:15.792Z,624
2017-10-20T14:08:17.235Z,544
2017-10-20T14:09:18.629Z,548
2017-10-20T14:10:20.022Z,528
2017-10-20T14:11:21.413Z,544
2017-10-20T14:12:22.839Z,516
2017-10-20T14:13:24.231Z,508
2017-10-20T14:14:25.778Z,556
2017-10-20T14:15:27.170Z,568